KMCI

Kansas City International Airport

Kansas City, Missouri, USA
METAR KMCI 170153Z 18010KT 10SM FEW200 07/M03 A2993 RMK AO2 SLP140 T00671028 $
Observed Flight Rules
Dec-17 @ 01:53 UTC (40 minutes ago) Visual Flight Rules
Wind Visibility Clouds
180° at 10 knots 10 miles
  • Few at 20,000' AGL
Temperatures Readings
Current 7°C / 45°F
Dewpoint -3°C / 27°F
Humidity 49%
Altimeter 29.93" Hg
Pressure 1014 hPa
Elevation 320
METAR KMCI 170153Z 18010KT 10SM FEW200 07/M03 A2993 RMK AO2 SLP140 T00671028 $
Observed Flight Rules
Dec-17 @ 01:53 UTC
(40 minutes ago)
VFR
Wind Visibility
180° at 10 knots 10 miles
Clouds
  • Few at 20,000' AGL
Temperature Dewpoint
7°C / 45°F -3°C / 27°F
Humidity Altimeter Pressure
49% 29.93" Hg 1014 hPa